METAR Data
IDs: Format: Raw Decoded Include TAF

Data at: 0056 UTC 20 Jul 2019

Region: TOP
KATL 200052Z 21007KT 10SM -RA FEW008 SCT110 BKN150 BKN250 24/22 A3009 RMK AO2 RAB47 SLP179 P0000 T02440222

KBOS 192354Z 24012KT 10SM FEW045 SCT160 BKN250 32/23 A2976 RMK AO2 SLP077 T03220228 10339 20311 55002

KBWI 192354Z 20003KT 10SM FEW070 33/24 A2988 RMK AO2 SLP117 T03330239 10361 20333 55003

KCLE 200051Z 19010KT 10SM SCT070 BKN200 31/24 A2988 RMK AO2 PRESFR SLP109 T03110239 $

KCLT 200052Z 19004KT 10SM FEW060 BKN080 31/22 A2999 RMK AO2 LTG DSNT SE AND S SLP143 CB DSNT SE-SW TCU DSNT SW T03110222

KCVG 200052Z 22004KT 10SM FEW040 29/23 A2995 RMK AO2 SLP130 T02940233

KDCA 200052Z 22006KT 10SM FEW070 33/22 A2991 RMK AO2 SLP128 T03280217

KDEN 200053Z 09006KT 10SM FEW110 35/01 A2989 RMK AO2 SLP021 T03500011

KDFW 200053Z 16013G20KT 10SM FEW060 BKN300 33/20 A2987 RMK AO2 SLP107 T03330200

KDTW 200053Z 25013G23KT 10SM TS FEW030 SCT050CB BKN150 25/21 A2986 RMK AO2 LTG DSNT W-N TSB22 PRESFR SLP104 OCNL LTGIC SW-NW TS SW-NW MOV S T02500206 $

KEWR 200051Z 23008KT 10SM FEW045 BKN250 32/24 A2983 RMK AO2 SLP101 T03220239

KFLL 192353Z 12008KT 10SM FEW026 SCT180 BKN250 30/22 A3004 RMK AO2 SLP172 CB DSNT SE MOV NW T03000222 10328 20300 55003

KIAD 200052Z 20003KT 10SM FEW080 SCT140 31/22 A2992 RMK AO2 SLP128 T03060222

KIAH 200053Z 17010KT 10SM FEW040 SCT250 32/22 A2995 RMK AO2 SLP141 T03170222

KJFK 200051Z 20009KT 10SM FEW050 BKN250 27/26 A2984 RMK AO2 SLP105 T02720256

KLAS 192356Z 24007G19KT 180V270 10SM FEW180 FEW200 39/M06 A2975 RMK AO2 SLP042 T03891056 10394 20350 58016

KLAX 200053Z 27014KT 10SM FEW017 21/15 A2990 RMK AO2 SLP123 T02060150 $

KLGA 200051Z 26011KT 10SM FEW048 SCT250 33/23 A2982 RMK AO2 SLP098 T03330228

KMCO 192353Z 00000KT 10SM FEW040 SCT060 BKN100 28/22 A3006 RMK AO2 LTG DSNT N AND NW SLP179 CB DSNT N AND SW 60000 T02830222 10344 20278 53004

KMDW 200053Z 22015G22KT 10SM FEW038 33/26 A2977 RMK AO2 PK WND 23026/0036 SLP066 T03280261

KMEM 192354Z 23006KT 10SM FEW044 BKN250 31/25 A2997 RMK AO2 SLP145 T03110250 10333 20311 56010

KMIA 192353Z COR 12007KT 10SM FEW035 SCT200 BKN250 31/21 A3004 RMK AO2 SLP174 CB DSNT SE SW AND NW T03060211 10333 20300 55002

KMSP 200053Z 26011G18KT 10SM SCT050TCU BKN250 34/26 A2962 RMK AO2 PK WND 24026/0018 LTG DSNT E SLP021 TCU ALQDS T03440261

KORD 200051Z 22013G19KT 10SM FEW038 32/25 A2976 RMK AO2 SLP071 T03220250

KPDX 200053Z 34007KT 310V010 10SM FEW060 25/07 A3005 RMK AO2 SLP176 T02500067

KPHL 192354Z 22009KT 10SM SCT250 33/23 A2987 RMK AO2 SLP115 T03280233 10350 20328 55002

KPHX 200051Z 28012KT 10SM FEW100 FEW180 SCT210 SCT250 39/02 A2973 RMK AO2 SLP044 T03940017

KPIT 200051Z 19005KT 10SM FEW150 FEW250 29/23 A2995 RMK AO2 SLP138 T02890233

KSAN 200051Z 30007KT 10SM FEW016 21/14 A2992 RMK AO2 SLP132 T02060144

KSEA 200053Z 36011KT 10SM FEW045 22/07 A3012 RMK AO2 SLP205 T02220072 $

KSFO 192356Z 20014KT 10SM FEW017 22/12 A2987 RMK AO2 SLP115 T02220122 10244 20211 56009

KSLC 192354Z 03013KT 10SM FEW210 FEW250 36/08 A2984 RMK AO2 SLP034 T03560083 10367 20328 58008

KSTL 200051Z 21010G23KT 10SM FEW050 33/23 A2987 RMK AO2 SLP100 T03280228

KTPA 200050Z 09013G37KT 1SM R01L/5500VP6000FT +TSRA BR BKN020CB BKN041 OVC050 22/20 A3012 RMK AO2 PK WND 12037/0045 SFC VIS 1 1/4 LTG DSNT ALQDS RAB41 TSB16 CONS LTGICCCCG OHD-NE-SW LN TS OHD-NE-SW MOV W P0009 $